METAR Data
IDs: Format: Raw Decoded Include TAF

Data at: 1444 UTC 21 Apr 2021

METAR for:KOXV (Knoxville Muni, IA, US)
Text:KOXV 211435Z AUTO 33010KT 10SM FEW040 BKN060 BKN075 03/M06 A3019 RMK AO2
Temperature: 3.0°C ( 37°F)
Dewpoint: -6.0°C ( 21°F) [RH = 52%]
Pressure (altimeter):30.19 inches Hg (1022.4 mb)
Winds:from the NNW (330 degrees) at 12 MPH (10 knots; 5.1 m/s)
Visibility:10 or more sm (16+ km)
Ceiling:6000 feet AGL
Clouds: few clouds at 4000 feet AGL, broken clouds at 6000 feet AGL, broken clouds at 7500 feet AGL
QC Flag:automated observation with no human augmentation